createdAt,value
2017-08-13T00:00:21.562Z,89.35
2017-08-13T00:02:50.762Z,89.31
2017-08-13T00:05:20.607Z,89.91
2017-08-13T00:07:49.663Z,91.13
2017-08-13T00:10:19.514Z,90.74
2017-08-13T00:12:48.584Z,90.42
2017-08-13T00:15:17.638Z,90.29
2017-08-13T00:17:46.727Z,90.28
2017-08-13T00:20:15.809Z,90.07
2017-08-13T00:22:44.896Z,89.82
2017-08-13T00:25:14.012Z,89.67
2017-08-13T00:27:43.070Z,89.76
2017-08-13T00:30:12.178Z,89.85
2017-08-13T00:32:41.208Z,89.80
2017-08-13T00:35:10.347Z,89.75
2017-08-13T00:37:40.255Z,89.75
2017-08-13T00:40:09.352Z,89.82
2017-08-13T00:42:39.167Z,89.59
2017-08-13T00:45:08.266Z,89.77
2017-08-13T00:47:37.336Z,89.65
2017-08-13T00:50:07.240Z,89.53
2017-08-13T00:52:37.520Z,89.61
2017-08-13T00:55:06.643Z,89.94
2017-08-13T00:57:35.704Z,89.81
2017-08-13T01:00:04.768Z,89.89
2017-08-13T01:02:33.854Z,89.73
2017-08-13T01:05:02.930Z,89.55
2017-08-13T01:07:31.980Z,89.34
2017-08-13T01:10:01.067Z,89.22
2017-08-13T01:12:30.136Z,89.41
2017-08-13T01:14:59.992Z,89.26
2017-08-13T01:17:29.043Z,89.07
2017-08-13T01:19:58.884Z,89.13
2017-08-13T01:22:27.971Z,88.96
2017-08-13T01:24:57.036Z,89.02
2017-08-13T01:27:26.131Z,89.10
2017-08-13T01:29:55.203Z,88.71
2017-08-13T01:32:24.273Z,88.54
2017-08-13T01:34:53.388Z,88.32
2017-08-13T01:37:22.444Z,88.35
2017-08-13T01:39:51.539Z,88.38
2017-08-13T01:42:20.628Z,88.58
2017-08-13T01:44:50.447Z,88.68
2017-08-13T01:47:19.511Z,88.80
2017-08-13T01:49:48.598Z,88.75
2017-08-13T01:52:17.673Z,88.81
2017-08-13T01:54:46.727Z,88.98
2017-08-13T01:57:15.774Z,89.07
2017-08-13T01:59:44.868Z,89.08
2017-08-13T02:02:13.939Z,88.99
2017-08-13T02:04:43.032Z,88.99
2017-08-13T02:07:12.113Z,88.93
2017-08-13T02:09:41.200Z,88.74
2017-08-13T02:12:10.284Z,88.55
2017-08-13T02:14:39.347Z,88.57
2017-08-13T02:17:09.232Z,88.45
2017-08-13T02:19:38.298Z,88.78
2017-08-13T02:22:07.371Z,88.89
2017-08-13T02:24:36.452Z,88.86
2017-08-13T02:27:05.660Z,88.75
2017-08-13T02:29:34.693Z,88.72
2017-08-13T02:32:03.818Z,88.47
2017-08-13T02:34:32.864Z,88.33
2017-08-13T02:37:02.708Z,88.43
2017-08-13T02:39:31.783Z,88.40
2017-08-13T02:42:00.841Z,88.29
2017-08-13T02:44:30.056Z,88.14
2017-08-13T02:46:59.084Z,88.25
2017-08-13T02:49:28.153Z,88.35
2017-08-13T02:51:57.987Z,88.25
2017-08-13T02:54:27.075Z,88.14
2017-08-13T02:56:56.131Z,88.13
2017-08-13T02:59:25.185Z,88.10
2017-08-13T03:01:54.279Z,88.08
2017-08-13T03:04:23.350Z,88.01
2017-08-13T03:06:52.419Z,88.23
2017-08-13T03:09:21.479Z,88.29
2017-08-13T03:11:50.559Z,88.39
2017-08-13T03:14:19.623Z,88.37
2017-08-13T03:16:49.471Z,88.36
2017-08-13T03:19:18.555Z,88.34
2017-08-13T03:21:47.604Z,88.39
2017-08-13T03:24:16.684Z,88.44
2017-08-13T03:26:45.776Z,88.27
2017-08-13T03:29:14.851Z,88.25
2017-08-13T03:31:43.914Z,88.23
2017-08-13T03:34:12.960Z,88.25
2017-08-13T03:36:42.267Z,88.91
2017-08-13T03:39:11.352Z,88.80
2017-08-13T03:41:40.392Z,88.75
2017-08-13T03:44:10.276Z,88.78
2017-08-13T03:46:39.319Z,88.77
2017-08-13T03:49:08.457Z,88.82
2017-08-13T03:51:37.486Z,88.80
2017-08-13T03:54:07.320Z,88.76
2017-08-13T03:56:36.412Z,88.94
2017-08-13T03:59:05.523Z,89.10
2017-08-13T04:01:34.580Z,89.25
2017-08-13T04:04:03.668Z,89.19
2017-08-13T04:06:32.737Z,89.32
2017-08-13T04:09:01.834Z,89.25
2017-08-13T04:11:30.910Z,89.30
2017-08-13T04:13:59.985Z,89.29
2017-08-13T04:16:29.836Z,89.60
2017-08-13T04:18:58.899Z,89.79
2017-08-13T04:21:27.948Z,89.82
2017-08-13T04:23:57.043Z,89.75
2017-08-13T04:26:26.102Z,89.60
2017-08-13T04:28:55.156Z,89.58
2017-08-13T04:31:25.013Z,89.56
2017-08-13T04:33:54.069Z,89.49
2017-08-13T04:36:23.896Z,89.42
2017-08-13T04:38:52.968Z,89.54
2017-08-13T04:41:22.803Z,89.46
2017-08-13T04:43:51.856Z,89.50
2017-08-13T04:46:20.937Z,89.42
2017-08-13T04:48:49.991Z,89.34
2017-08-13T04:51:19.083Z,89.17
2017-08-13T04:53:48.139Z,89.10
2017-08-13T04:56:17.228Z,89.03
2017-08-13T04:58:46.312Z,89.08
2017-08-13T05:01:15.398Z,89.10
2017-08-13T05:03:44.472Z,89.04
2017-08-13T05:06:13.547Z,88.99
2017-08-13T05:08:42.603Z,88.89
2017-08-13T05:11:11.671Z,88.52
2017-08-13T05:13:40.741Z,88.37
2017-08-13T05:16:09.828Z,88.64
2017-08-13T05:18:38.876Z,88.66
2017-08-13T05:21:07.952Z,88.39
2017-08-13T05:23:37.019Z,88.51
2017-08-13T05:26:06.325Z,88.30
2017-08-13T05:28:35.409Z,88.58
2017-08-13T05:31:04.467Z,88.60
2017-08-13T05:33:33.544Z,88.48
2017-08-13T05:36:02.911Z,88.45
2017-08-13T05:38:32.741Z,88.39
2017-08-13T05:41:01.801Z,87.87
2017-08-13T05:43:30.859Z,87.43
2017-08-13T05:45:59.924Z,87.32
2017-08-13T05:48:28.993Z,84.06
2017-08-13T05:50:58.043Z,83.34
2017-08-13T05:53:27.128Z,83.65
2017-08-13T05:55:56.178Z,83.98
2017-08-13T05:58:26.002Z,83.86
2017-08-13T06:00:55.062Z,83.43
2017-08-13T06:03:24.139Z,83.24
2017-08-13T06:05:53.192Z,81.68
2017-08-13T06:08:22.260Z,81.79
2017-08-13T06:10:51.312Z,82.27
2017-08-13T06:13:20.390Z,82.64
2017-08-13T06:15:49.460Z,80.73
2017-08-13T06:18:18.527Z,79.78
2017-08-13T06:20:47.571Z,79.56
2017-08-13T06:23:16.627Z,80.71
2017-08-13T06:25:45.687Z,79.31
2017-08-13T06:28:14.726Z,79.58
2017-08-13T06:30:43.771Z,80.47
2017-08-13T06:33:12.850Z,78.96
2017-08-13T06:35:41.904Z,79.93
2017-08-13T06:38:10.964Z,77.80
2017-08-13T06:40:40.013Z,79.68
2017-08-13T06:43:09.096Z,78.98
2017-08-13T06:45:38.163Z,75.87
2017-08-13T06:48:07.208Z,74.51
2017-08-13T06:50:36.276Z,74.38
2017-08-13T06:53:05.524Z,72.96
2017-08-13T06:55:34.581Z,73.29
2017-08-13T06:58:03.635Z,74.58
2017-08-13T07:00:32.714Z,73.53
2017-08-13T07:03:01.748Z,73.07
2017-08-13T07:05:30.848Z,73.68
2017-08-13T07:07:59.899Z,75.17
2017-08-13T07:10:28.961Z,70.96
2017-08-13T07:12:58.028Z,71.36
2017-08-13T07:15:27.206Z,71.13
2017-08-13T07:17:56.261Z,70.90
2017-08-13T07:20:25.332Z,70.17
2017-08-13T07:22:54.416Z,66.41
2017-08-13T07:25:23.493Z,68.30
2017-08-13T07:27:52.565Z,71.19
2017-08-13T07:30:21.621Z,72.73
2017-08-13T07:32:50.694Z,71.65
2017-08-13T07:35:19.807Z,70.60
2017-08-13T07:37:48.903Z,70.25
2017-08-13T07:40:18.004Z,71.39
2017-08-13T07:42:47.056Z,70.79
2017-08-13T07:45:16.158Z,70.73
2017-08-13T07:47:45.231Z,71.56
2017-08-13T07:50:14.361Z,71.65
2017-08-13T07:52:43.435Z,71.41
2017-08-13T07:55:12.480Z,71.74
2017-08-13T07:57:41.555Z,71.65
2017-08-13T08:00:10.632Z,71.18
2017-08-13T08:02:39.672Z,67.11
2017-08-13T08:05:09.752Z,67.33
2017-08-13T08:07:38.812Z,70.53
2017-08-13T08:10:07.884Z,71.36
2017-08-13T08:12:36.928Z,67.03
2017-08-13T08:15:06.012Z,66.40
2017-08-13T08:17:35.087Z,65.49
2017-08-13T08:20:04.141Z,65.67
2017-08-13T08:22:33.204Z,66.94
2017-08-13T08:25:02.277Z,68.20
2017-08-13T08:27:31.323Z,67.59
2017-08-13T08:30:00.435Z,67.17
2017-08-13T08:32:29.493Z,65.29
2017-08-13T08:34:58.574Z,63.39
2017-08-13T08:37:27.621Z,63.23
2017-08-13T08:39:56.685Z,65.63
2017-08-13T08:42:25.743Z,62.62
2017-08-13T08:44:54.803Z,62.67
2017-08-13T08:47:23.881Z,63.60
2017-08-13T08:49:52.932Z,62.90
2017-08-13T08:52:22.258Z,63.29
2017-08-13T08:54:51.308Z,61.64
2017-08-13T08:57:20.363Z,61.33
2017-08-13T08:59:49.512Z,62.29
2017-08-13T09:02:18.565Z,64.10
2017-08-13T09:04:47.648Z,64.18
2017-08-13T09:07:16.739Z,64.26
2017-08-13T09:09:45.795Z,62.85
2017-08-13T09:12:14.887Z,62.28
2017-08-13T09:14:43.968Z,61.73
2017-08-13T09:17:13.004Z,63.62
2017-08-13T09:19:42.080Z,63.87
2017-08-13T09:22:11.256Z,65.26
2017-08-13T09:24:40.311Z,65.81
2017-08-13T09:27:10.110Z,64.52
2017-08-13T09:29:39.205Z,66.02
2017-08-13T09:32:08.308Z,60.27
2017-08-13T09:34:37.385Z,65.33
2017-08-13T09:37:06.436Z,62.22
2017-08-13T09:39:35.776Z,59.54
2017-08-13T09:42:04.867Z,58.40
2017-08-13T09:44:33.960Z,59.99
2017-08-13T09:47:03.024Z,57.15
2017-08-13T09:49:32.072Z,56.45
2017-08-13T09:52:01.135Z,59.74
2017-08-13T09:54:30.288Z,57.43
2017-08-13T09:56:59.355Z,57.89
2017-08-13T09:59:28.406Z,56.65
2017-08-13T10:01:57.484Z,58.26
2017-08-13T10:04:26.519Z,59.71
2017-08-13T10:06:55.600Z,59.86
2017-08-13T10:09:24.717Z,57.70
2017-08-13T10:11:53.772Z,58.96
2017-08-13T10:14:22.840Z,57.31
2017-08-13T10:16:52.659Z,56.67
2017-08-13T10:19:22.503Z,60.38
2017-08-13T10:21:51.564Z,55.15
2017-08-13T10:24:21.389Z,54.69
2017-08-13T10:26:50.448Z,53.36
2017-08-13T10:29:19.542Z,54.08
2017-08-13T10:31:48.612Z,55.23
2017-08-13T10:34:17.658Z,56.68
2017-08-13T10:36:47.484Z,54.84
2017-08-13T10:39:16.621Z,54.26
2017-08-13T10:41:45.664Z,53.09
2017-08-13T10:44:14.743Z,53.95
2017-08-13T10:46:43.803Z,55.87
2017-08-13T10:49:12.847Z,54.89
2017-08-13T10:51:42.700Z,53.40
2017-08-13T10:54:11.983Z,53.82
2017-08-13T10:56:41.024Z,54.31
2017-08-13T10:59:10.095Z,55.31
2017-08-13T11:01:39.181Z,54.88
2017-08-13T11:04:08.233Z,54.89
2017-08-13T11:06:38.090Z,55.85
2017-08-13T11:09:07.203Z,55.78
2017-08-13T11:11:36.224Z,53.94
2017-08-13T11:14:05.309Z,55.58
2017-08-13T11:16:34.336Z,56.04
2017-08-13T11:19:03.424Z,59.01
2017-08-13T11:21:33.255Z,58.24
2017-08-13T11:24:02.363Z,56.69
2017-08-13T11:26:31.400Z,56.72
2017-08-13T11:29:00.460Z,55.97
2017-08-13T11:31:29.562Z,57.44
2017-08-13T11:33:58.602Z,56.20
2017-08-13T11:36:28.420Z,54.80
2017-08-13T11:38:58.289Z,55.33
2017-08-13T11:41:27.319Z,56.77
2017-08-13T11:43:56.504Z,54.86
2017-08-13T11:46:25.567Z,52.19
2017-08-13T11:48:54.629Z,50.85
2017-08-13T11:51:24.487Z,54.14
2017-08-13T11:53:53.559Z,50.68
2017-08-13T11:56:22.620Z,49.81
2017-08-13T11:58:52.464Z,52.95
2017-08-13T12:01:21.511Z,49.65
2017-08-13T12:03:50.592Z,52.40
2017-08-13T12:06:19.631Z,50.68
2017-08-13T12:08:48.742Z,51.34
2017-08-13T12:11:17.814Z,51.52
2017-08-13T12:13:47.659Z,53.61
2017-08-13T12:16:16.731Z,54.94
2017-08-13T12:18:46.562Z,53.96
2017-08-13T12:21:15.652Z,55.58
2017-08-13T12:23:45.482Z,56.38
2017-08-13T12:26:14.533Z,57.88
2017-08-13T12:28:44.392Z,59.05
2017-08-13T12:31:13.433Z,59.96
2017-08-13T12:33:43.260Z,58.99
2017-08-13T12:36:13.187Z,58.92
2017-08-13T12:38:42.229Z,59.78
2017-08-13T12:41:11.484Z,60.24
2017-08-13T12:43:40.574Z,58.73
2017-08-13T12:46:10.435Z,56.77
2017-08-13T12:48:39.509Z,57.71
2017-08-13T12:51:09.473Z,57.78
2017-08-13T12:53:39.308Z,56.06
2017-08-13T12:56:09.759Z,55.64
2017-08-13T12:58:38.815Z,57.79
2017-08-13T13:01:08.767Z,54.93
2017-08-13T13:03:37.816Z,52.54
2017-08-13T13:06:06.952Z,54.49
2017-08-13T13:08:36.011Z,54.69
2017-08-13T13:11:06.047Z,55.22
2017-08-13T13:13:35.839Z,54.42
2017-08-13T13:16:04.946Z,55.56
2017-08-13T13:18:33.988Z,54.26
2017-08-13T13:21:03.204Z,55.14
2017-08-13T13:23:32.257Z,55.89
2017-08-13T13:26:01.320Z,54.87
2017-08-13T13:28:30.395Z,56.67
2017-08-13T13:30:59.478Z,53.22
2017-08-13T13:33:28.533Z,52.83
2017-08-13T13:35:57.621Z,52.58
2017-08-13T13:38:27.465Z,53.80
2017-08-13T13:40:58.011Z,53.23
2017-08-13T13:43:27.056Z,53.67
2017-08-13T13:45:56.885Z,48.23
2017-08-13T13:48:25.960Z,49.16
2017-08-13T13:50:55.922Z,52.98
2017-08-13T13:53:25.103Z,52.65
2017-08-13T13:55:54.149Z,52.04
2017-08-13T13:58:23.213Z,53.03
2017-08-13T14:00:52.277Z,51.26
2017-08-13T14:03:22.099Z,51.93
2017-08-13T14:05:51.159Z,50.63
2017-08-13T14:08:21.012Z,51.54
2017-08-13T14:10:50.066Z,50.43
2017-08-13T14:13:19.881Z,51.20
2017-08-13T14:15:49.724Z,50.43
2017-08-13T14:18:18.766Z,52.17
2017-08-13T14:20:47.820Z,50.44
2017-08-13T14:23:16.884Z,52.77
2017-08-13T14:25:46.826Z,51.41
2017-08-13T14:28:15.869Z,51.96
2017-08-13T14:30:44.934Z,50.91
2017-08-13T14:33:13.997Z,51.91
2017-08-13T14:35:43.043Z,51.27
2017-08-13T14:38:12.104Z,52.06
2017-08-13T14:40:41.190Z,51.11
2017-08-13T14:43:10.268Z,52.22
2017-08-13T14:45:40.091Z,53.02
2017-08-13T14:48:09.248Z,53.01
2017-08-13T14:50:38.341Z,52.30
2017-08-13T14:53:07.444Z,52.38
2017-08-13T14:55:36.490Z,51.49
2017-08-13T14:58:06.469Z,52.30
2017-08-13T15:00:35.492Z,53.73
2017-08-13T15:03:04.596Z,53.59
2017-08-13T15:05:34.733Z,53.14
2017-08-13T15:08:03.806Z,53.71
2017-08-13T15:10:32.851Z,54.31
2017-08-13T15:13:01.920Z,54.97
2017-08-13T15:15:30.973Z,55.94
2017-08-13T15:18:00.807Z,54.64
2017-08-13T15:20:29.875Z,54.58
2017-08-13T15:22:59.697Z,55.18
2017-08-13T15:25:28.797Z,53.90
2017-08-13T15:27:58.598Z,53.98
2017-08-13T15:30:28.435Z,55.31
2017-08-13T15:32:57.536Z,55.22
2017-08-13T15:35:26.572Z,56.37
2017-08-13T15:37:55.652Z,56.71
2017-08-13T15:40:25.515Z,56.16
2017-08-13T15:42:54.602Z,56.32
2017-08-13T15:45:24.484Z,56.00
2017-08-13T15:47:54.237Z,56.23
2017-08-13T15:50:23.603Z,58.20
2017-08-13T15:52:52.684Z,58.88
2017-08-13T15:55:21.735Z,60.00
2017-08-13T15:57:50.828Z,60.96
2017-08-13T16:00:19.895Z,61.47
2017-08-13T16:02:49.206Z,61.95
2017-08-13T16:05:18.280Z,62.12
2017-08-13T16:07:47.327Z,60.81
2017-08-13T16:10:16.429Z,62.21
2017-08-13T16:12:45.503Z,60.75
2017-08-13T16:15:15.379Z,61.44
2017-08-13T16:17:44.416Z,61.79
2017-08-13T16:20:13.524Z,60.65
2017-08-13T16:22:42.629Z,60.80
2017-08-13T16:25:11.986Z,61.26
2017-08-13T16:27:41.039Z,61.37
2017-08-13T16:30:10.083Z,62.05
2017-08-13T16:32:39.164Z,61.98
2017-08-13T16:35:08.215Z,61.65
2017-08-13T16:37:37.303Z,62.59
2017-08-13T16:40:06.405Z,63.00
2017-08-13T16:42:35.462Z,62.59
2017-08-13T16:45:04.530Z,62.91
2017-08-13T16:47:33.583Z,63.33
2017-08-13T16:50:02.681Z,63.41
2017-08-13T16:52:31.708Z,63.46
2017-08-13T16:55:00.743Z,64.03
2017-08-13T16:57:29.853Z,64.28
2017-08-13T16:59:58.910Z,64.40
2017-08-13T17:02:28.185Z,64.51
2017-08-13T17:04:57.215Z,64.85
2017-08-13T17:07:26.284Z,64.86
2017-08-13T17:09:55.353Z,65.07
2017-08-13T17:12:24.421Z,65.23
2017-08-13T17:14:53.476Z,65.03
2017-08-13T17:17:22.512Z,64.88
2017-08-13T17:19:51.588Z,65.50
2017-08-13T17:22:20.657Z,65.33
2017-08-13T17:24:49.733Z,64.99
2017-08-13T17:27:18.787Z,65.57
2017-08-13T17:29:47.832Z,65.77
2017-08-13T17:32:16.923Z,64.80
2017-08-13T17:34:45.983Z,65.60
2017-08-13T17:37:15.072Z,65.27
2017-08-13T17:39:44.095Z,64.99
2017-08-13T17:42:13.184Z,65.58
2017-08-13T17:44:42.236Z,66.23
2017-08-13T17:47:11.285Z,66.54
2017-08-13T17:49:40.364Z,66.51
2017-08-13T17:52:09.416Z,66.56
2017-08-13T17:54:38.493Z,67.07
2017-08-13T17:57:07.531Z,67.60
2017-08-13T17:59:36.595Z,67.57
2017-08-13T18:02:05.665Z,67.99
2017-08-13T18:04:34.762Z,67.77
2017-08-13T18:07:03.825Z,67.95
2017-08-13T18:09:32.867Z,68.19
2017-08-13T18:12:01.957Z,68.85
2017-08-13T18:14:30.994Z,68.51
2017-08-13T18:17:00.117Z,68.22
2017-08-13T18:19:29.198Z,68.24
2017-08-13T18:21:58.268Z,67.91
2017-08-13T18:24:27.316Z,68.20
2017-08-13T18:26:56.378Z,68.31
2017-08-13T18:29:25.677Z,68.88
2017-08-13T18:31:54.968Z,69.09
2017-08-13T18:34:24.014Z,69.44
2017-08-13T18:36:53.085Z,70.00
2017-08-13T18:39:22.143Z,70.42
2017-08-13T18:41:51.226Z,70.64
2017-08-13T18:44:20.267Z,71.03
2017-08-13T18:46:49.368Z,71.36
2017-08-13T18:49:18.432Z,71.49
2017-08-13T18:51:47.494Z,71.73
2017-08-13T18:54:16.682Z,71.54
2017-08-13T18:56:45.875Z,71.57
2017-08-13T18:59:15.054Z,71.62
2017-08-13T19:01:44.299Z,72.00
2017-08-13T19:04:13.532Z,73.20
2017-08-13T19:06:42.786Z,73.45
2017-08-13T19:09:12.096Z,73.53
2017-08-13T19:11:41.425Z,73.64
2017-08-13T19:14:10.783Z,73.96
2017-08-13T19:16:40.008Z,73.92
2017-08-13T19:19:09.400Z,73.80
2017-08-13T19:21:38.819Z,73.67
2017-08-13T19:24:08.246Z,73.76
2017-08-13T19:26:37.623Z,73.86
2017-08-13T19:29:07.087Z,74.09
2017-08-13T19:31:36.487Z,74.38
2017-08-13T19:34:06.040Z,74.85
2017-08-13T19:36:35.414Z,74.97
2017-08-13T19:39:04.862Z,75.00
2017-08-13T19:41:35.242Z,75.25
2017-08-13T19:44:04.633Z,75.53
2017-08-13T19:46:34.038Z,75.98
2017-08-13T19:49:03.524Z,76.52
2017-08-13T19:51:32.908Z,76.59
2017-08-13T19:54:02.330Z,76.65
2017-08-13T19:56:31.809Z,76.88
2017-08-13T19:59:01.235Z,76.79
2017-08-13T20:01:30.641Z,77.06
2017-08-13T20:04:00.112Z,77.22
2017-08-13T20:06:29.630Z,77.12
2017-08-13T20:08:59.053Z,77.59
2017-08-13T20:11:28.398Z,77.60
2017-08-13T20:13:57.772Z,77.72
2017-08-13T20:16:26.915Z,77.81
2017-08-13T20:18:56.103Z,77.64
2017-08-13T20:21:25.199Z,77.52
2017-08-13T20:23:54.279Z,78.07
2017-08-13T20:26:23.350Z,78.19
2017-08-13T20:28:52.433Z,78.02
2017-08-13T20:31:21.469Z,78.34
2017-08-13T20:33:50.541Z,78.48
2017-08-13T20:36:19.585Z,78.74
2017-08-13T20:38:48.636Z,78.99
2017-08-13T20:41:17.736Z,79.20
2017-08-13T20:43:46.796Z,79.65
2017-08-13T20:46:15.878Z,79.55
2017-08-13T20:48:44.946Z,79.67
2017-08-13T20:51:14.018Z,80.06
2017-08-13T20:53:44.216Z,80.16
2017-08-13T20:56:13.281Z,79.93
2017-08-13T20:58:42.362Z,80.27
2017-08-13T21:01:11.438Z,80.06
2017-08-13T21:03:40.511Z,79.85
2017-08-13T21:06:09.680Z,80.02
2017-08-13T21:08:38.725Z,79.95
2017-08-13T21:11:07.802Z,80.26
2017-08-13T21:13:36.883Z,80.27
2017-08-13T21:16:05.982Z,80.22
2017-08-13T21:18:35.041Z,80.14
2017-08-13T21:21:04.264Z,80.67
2017-08-13T21:23:33.323Z,80.35
2017-08-13T21:26:02.394Z,79.96
2017-08-13T21:28:31.484Z,80.31
2017-08-13T21:31:00.557Z,80.48
2017-08-13T21:33:29.626Z,80.59
2017-08-13T21:35:58.691Z,80.74
2017-08-13T21:38:27.755Z,80.81
2017-08-13T21:40:56.826Z,80.95
2017-08-13T21:43:25.894Z,81.49
2017-08-13T21:45:54.980Z,81.16
2017-08-13T21:48:24.049Z,81.31
2017-08-13T21:50:53.138Z,81.46
2017-08-13T21:53:22.244Z,81.70
2017-08-13T21:55:51.312Z,81.71
2017-08-13T21:58:20.390Z,82.13
2017-08-13T22:00:49.473Z,81.88
2017-08-13T22:03:18.519Z,81.30
2017-08-13T22:05:47.580Z,81.18
2017-08-13T22:08:16.657Z,81.18
2017-08-13T22:10:45.735Z,81.02
2017-08-13T22:13:14.807Z,81.42
2017-08-13T22:15:43.920Z,81.69
2017-08-13T22:18:12.976Z,81.98
2017-08-13T22:20:42.024Z,81.91
2017-08-13T22:23:11.148Z,82.17
2017-08-13T22:25:40.200Z,82.20
2017-08-13T22:28:09.259Z,81.86
2017-08-13T22:30:38.315Z,81.26
2017-08-13T22:33:07.406Z,81.28
2017-08-13T22:35:36.473Z,81.94
2017-08-13T22:38:05.523Z,82.32
2017-08-13T22:40:34.619Z,82.35
2017-08-13T22:43:03.907Z,82.13
2017-08-13T22:45:33.563Z,82.19
2017-08-13T22:48:02.630Z,82.19
2017-08-13T22:50:31.684Z,82.72
2017-08-13T22:53:02.431Z,82.71
2017-08-13T22:55:34.444Z,83.27
2017-08-13T22:58:03.508Z,83.01
2017-08-13T23:00:32.595Z,83.29
2017-08-13T23:03:01.688Z,83.57
2017-08-13T23:05:30.798Z,83.50
2017-08-13T23:08:00.039Z,83.33
2017-08-13T23:10:29.155Z,83.18
2017-08-13T23:12:58.227Z,83.43
2017-08-13T23:15:27.287Z,83.54
2017-08-13T23:17:56.355Z,83.29
2017-08-13T23:20:25.447Z,82.97
2017-08-13T23:22:54.529Z,83.12
2017-08-13T23:25:24.484Z,83.27
2017-08-13T23:27:53.553Z,82.96
2017-08-13T23:30:22.622Z,82.88
2017-08-13T23:32:51.678Z,83.40
2017-08-13T23:35:21.117Z,83.75
2017-08-13T23:37:50.205Z,83.67
2017-08-13T23:40:19.387Z,83.85
2017-08-13T23:42:48.487Z,83.71
2017-08-13T23:45:17.607Z,83.95
2017-08-13T23:47:46.681Z,84.18
2017-08-13T23:50:15.873Z,84.04
2017-08-13T23:52:44.961Z,84.14
2017-08-13T23:55:14.020Z,84.19
2017-08-13T23:57:43.102Z,84.21
